EDT,Max TemperatureF,Mean TemperatureF,Min TemperatureF,Max Dew PointF,MeanDew PointF,Min DewpointF,Max Humidity, Mean Humidity, Min Humidity, Max Sea Level PressureIn, Mean Sea Level PressureIn, Min Sea Level PressureIn, Max VisibilityMiles, Mean VisibilityMiles, Min VisibilityMiles, Max Wind SpeedMPH, Mean Wind SpeedMPH, Max Gust SpeedMPH,PrecipitationIn, CloudCover, Events, WindDirDegrees
2013-5-1,71,56,41,36,33,28,82,45,23,30.48,30.46,30.39,10,10,10,8,2,,0.00,0,,151
2013-5-2,78,60,43,44,39,35,80,58,22,30.52,30.45,30.38,10,10,10,20,3,26,0.00,2,Rain,61
2013-5-3,60,50,42,42,39,36,82,65,51,30.55,30.49,30.41,10,10,10,15,8,22,0.00,0,,42
2013-5-4,60,49,39,43,36,27,89,63,29,30.39,30.37,30.33,10,10,10,17,4,16,0.00,0,,78
2013-5-5,63,49,35,39,37,33,93,68,40,30.36,30.32,30.28,10,8,1,10,2,,0.00,0,,86
2013-5-6,71,54,37,46,42,35,93,77,36,30.32,30.26,30.17,10,6,0,7,1,,0.00,2,Fog,153
2013-5-7,77,60,46,56,50,43,89,63,34,30.19,30.16,30.11,10,10,9,9,2,16,0.00,0,,175
2013-5-8,75,64,54,61,57,51,93,79,52,30.22,30.16,30.08,10,9,2,14,5,26,0.08,5,Rain,123
2013-5-9,66,62,57,59,56,55,94,88,73,30.08,29.98,29.91,10,7,1,8,3,,0.57,7,Rain-Thunderstorm,65
2013-5-10,79,66,55,58,55,53,94,80,43,29.97,29.94,29.92,10,6,0,9,3,16,0.00,4,Fog,283
2013-5-11,71,66,60,61,58,53,90,77,64,29.91,29.78,29.71,10,9,2,20,7,29,0.14,6,Rain,203
2013-5-12,72,62,50,61,51,25,94,71,30,29.82,29.66,29.57,10,9,4,14,5,21,0.07,6,Rain,240
2013-5-13,59,49,43,32,28,25,60,44,30,30.05,29.95,29.83,10,10,10,16,9,26,0.00,2,,267
2013-5-14,60,49,39,34,29,24,70,45,28,30.07,30.03,29.99,10,10,10,16,5,24,0.00,6,,301
2013-5-15,68,52,37,50,38,28,83,58,27,30.07,29.91,29.69,10,10,10,16,5,25,0.00,3,,207
2013-5-16,81,66,50,50,38,27,89,42,16,29.83,29.68,29.64,10,10,9,21,10,37,0.00,0,,257
2013-5-17,69,60,50,42,38,33,74,48,27,30.23,30.04,29.86,10,10,10,14,7,25,0.00,1,,327
2013-5-18,73,58,44,49,42,34,90,60,27,30.33,30.28,30.24,10,10,10,10,2,18,0.00,3,,54
2013-5-19,70,60,50,54,50,47,94,82,49,30.37,30.31,30.25,10,8,1,10,2,17,0.07,6,Rain,59
2013-5-20,82,69,57,62,58,54,94,76,49,30.24,30.05,29.93,10,8,2,12,4,,0.10,5,Rain,248
2013-5-21,71,60,51,61,55,48,94,86,73,30.05,29.98,29.92,10,6,0,21,5,26,0.00,7,Fog-Rain,57
2013-5-22,62,56,51,55,50,48,94,87,77,30.10,29.97,29.90,10,8,2,15,6,21,0.81,8,Rain-Thunderstorm,78
2013-5-23,78,65,53,67,58,51,94,85,69,29.95,29.89,29.82,10,5,0,17,4,26,0.10,7,Fog-Rain-Thunderstorm,175
2013-5-24,73,62,50,64,59,48,94,85,67,29.85,29.76,29.67,10,8,2,14,7,22,0.62,8,Rain,235
2013-5-25,53,47,42,49,45,35,94,87,74,29.83,29.77,29.72,10,5,2,17,9,24,0.41,8,Rain,337
2013-5-26,57,48,39,40,37,35,86,68,47,30.10,29.85,29.71,10,10,9,21,11,28,0.08,7,Rain,292
2013-5-27,71,56,41,42,37,31,86,51,24,30.20,30.12,30.09,10,10,10,13,8,21,0.00,0,,273
2013-5-28,73,58,44,49,42,34,93,58,27,30.26,30.22,30.18,10,10,10,9,2,,0.00,0,,110
2013-5-29,68,62,57,61,57,50,94,86,72,30.20,30.10,30.01,10,7,2,7,3,,0.47,7,Rain-Thunderstorm,126
2013-5-30,88,76,63,66,62,59,93,66,37,30.09,30.05,30.01,10,10,8,15,8,22,0.00,1,,243
2013-5-31,95,86,79,65,62,59,60,43,32,30.03,29.97,29.94,10,10,10,14,9,21,0.00,0,,227